Time;durP1;ratioP1;P1;durP2;ratioP2;P2;SDS_P1;SDS_P2;PMS_P1;PMS_P2;Temp;Humidity;BMP_temperature;BMP_pressure;BME280_temperature;BME280_humidity;BME280_pressure;Samples;Min_cycle;Max_cycle;Signal;HPM_P1;HPM_P2
2023/03/30 00:00:17;;;;;;;19.50;13.50;;;11.20;99.90;;;;;;5036276;28;20596;-73
2023/03/30 00:02:45;;;;;;;20.35;12.32;;;11.20;99.90;;;;;;5030956;28;20520;-73
2023/03/30 00:05:10;;;;;;;19.73;13.18;;;11.20;99.90;;;;;;5044818;28;20193;-73
2023/03/30 00:07:37;;;;;;;20.60;12.15;;;11.20;99.90;;;;;;5044113;28;22714;-74
2023/03/30 00:10:05;;;;;;;17.92;11.77;;;11.20;99.90;;;;;;5016053;28;20117;-75
2023/03/30 00:12:31;;;;;;;21.33;11.68;;;11.20;99.90;;;;;;5021125;28;20070;-74
2023/03/30 00:14:57;;;;;;;19.88;12.13;;;11.20;99.90;;;;;;5033528;28;20052;-74
2023/03/30 00:17:22;;;;;;;16.45;11.75;;;11.20;99.90;;;;;;5034206;28;20036;-74
2023/03/30 00:19:48;;;;;;;20.00;11.07;;;11.20;99.90;;;;;;5037283;28;20111;-73
2023/03/30 00:22:14;;;;;;;16.30;10.02;;;11.20;99.90;;;;;;5029780;28;20448;-73
2023/03/30 00:24:39;;;;;;;18.48;10.63;;;11.30;99.90;;;;;;5029785;28;20077;-74
2023/03/30 00:27:05;;;;;;;17.33;10.50;;;11.20;99.90;;;;;;5049686;28;20114;-74
2023/03/30 00:29:31;;;;;;;17.85;10.15;;;11.30;99.90;;;;;;5032499;28;20067;-72
2023/03/30 00:31:57;;;;;;;15.98;9.82;;;11.30;99.90;;;;;;5044056;28;20048;-73
2023/03/30 00:34:22;;;;;;;14.13;8.57;;;11.30;99.90;;;;;;5036225;28;20041;-73
2023/03/30 00:36:48;;;;;;;14.20;9.05;;;11.30;99.90;;;;;;5036090;28;20064;-74
2023/03/30 00:39:17;;;;;;;14.52;9.07;;;11.40;99.90;;;;;;5029532;28;20048;-73
2023/03/30 00:41:44;;;;;;;13.98;9.07;;;11.40;99.90;;;;;;5036050;28;20056;-73
2023/03/30 00:44:48;;;;;;;17.58;8.82;;;11.40;99.90;;;;;;5047953;28;20041;-74
2023/03/30 00:47:15;;;;;;;16.75;8.60;;;11.40;99.90;;;;;;5041615;28;20033;-73
2023/03/30 00:49:42;;;;;;;12.27;8.80;;;11.50;99.90;;;;;;5032816;28;20053;-73
2023/03/30 00:52:10;;;;;;;13.50;8.02;;;11.40;99.90;;;;;;5029103;28;20119;-73
2023/03/30 00:54:37;;;;;;;15.80;8.18;;;11.40;99.90;;;;;;5033762;28;20045;-73
2023/03/30 00:57:03;;;;;;;19.08;8.48;;;11.50;99.90;;;;;;5029392;28;20067;-73
2023/03/30 00:59:29;;;;;;;16.33;8.20;;;11.40;99.90;;;;;;5032102;28;20079;-73
2023/03/30 01:01:55;;;;;;;17.77;8.23;;;11.50;99.90;;;;;;5048203;28;20676;-72
2023/03/30 01:04:21;;;;;;;14.95;8.43;;;11.50;99.90;;;;;;5024481;28;20053;-73
2023/03/30 01:06:48;;;;;;;12.98;7.78;;;11.50;99.90;;;;;;5008267;28;20092;-73
2023/03/30 01:09:15;;;;;;;17.20;7.97;;;11.50;99.90;;;;;;5028285;28;20282;-74
2023/03/30 01:11:42;;;;;;;15.52;7.85;;;11.50;99.90;;;;;;5027319;28;20390;-73
2023/03/30 01:14:13;;;;;;;15.55;6.80;;;11.50;99.90;;;;;;5039928;28;20044;-73
2023/03/30 01:16:54;;;;;;;14.90;7.97;;;11.50;99.90;;;;;;5026713;28;20045;-73
2023/03/30 01:19:55;;;;;;;14.38;7.40;;;11.50;99.90;;;;;;5031898;28;20048;-73
2023/03/30 01:23:02;;;;;;;13.77;7.10;;;11.50;99.90;;;;;;5038406;28;20133;-73
2023/03/30 01:25:46;;;;;;;14.75;7.28;;;11.50;99.90;;;;;;4938371;28;20088;-73
2023/03/30 01:28:30;;;;;;;13.15;7.00;;;11.50;99.90;;;;;;5019424;28;20059;-73
2023/03/30 01:31:17;;;;;;;14.25;7.35;;;11.50;99.90;;;;;;5032917;28;22186;-73
2023/03/30 01:34:10;;;;;;;14.00;6.93;;;11.50;99.90;;;;;;5006499;28;20049;-72
2023/03/30 01:36:35;;;;;;;11.93;6.65;;;11.50;99.90;;;;;;5030268;28;20512;-73
2023/03/30 01:39:23;;;;;;;15.43;7.60;;;11.40;99.90;;;;;;5031257;28;20044;-72
2023/03/30 01:42:08;;;;;;;17.33;6.80;;;11.50;99.90;;;;;;5027935;28;20140;-72
2023/03/30 01:44:44;;;;;;;12.65;6.60;;;11.50;99.90;;;;;;5028979;28;20040;-72
2023/03/30 01:47:37;;;;;;;14.70;6.60;;;11.50;99.90;;;;;;5023966;28;20040;-72
2023/03/30 01:50:14;;;;;;;15.00;6.25;;;11.50;99.90;;;;;;5028417;28;20063;-73
2023/03/30 01:53:23;;;;;;;13.00;6.57;;;11.60;99.90;;;;;;5040075;28;20044;-73
2023/03/30 01:56:08;;;;;;;16.65;6.82;;;11.60;99.90;;;;;;5012446;28;20045;-74
2023/03/30 01:58:45;;;;;;;12.13;5.90;;;11.60;99.90;;;;;;5031792;28;20040;-74
2023/03/30 02:01:16;;;;;;;15.55;7.07;;;11.50;99.90;;;;;;5018185;28;20102;-73
2023/03/30 02:03:45;;;;;;;11.30;6.82;;;11.50;99.90;;;;;;5026785;28;20160;-73
2023/03/30 02:06:19;;;;;;;13.25;6.10;;;11.50;99.90;;;;;;5030053;28;20040;-73
2023/03/30 02:08:48;;;;;;;12.05;5.80;;;11.50;99.90;;;;;;5028197;28;20544;-73
2023/03/30 02:11:14;;;;;;;10.60;5.20;;;11.50;99.90;;;;;;5033010;28;20048;-73
2023/03/30 02:13:41;;;;;;;15.98;5.85;;;11.50;99.90;;;;;;5028127;28;20044;-73
2023/03/30 02:16:23;;;;;;;13.13;6.10;;;11.50;99.90;;;;;;5028664;28;20290;-72
2023/03/30 02:18:49;;;;;;;14.63;5.30;;;11.50;99.90;;;;;;5028769;28;20079;-74
2023/03/30 02:21:15;;;;;;;13.18;5.20;;;11.50;99.90;;;;;;5045872;28;20130;-74
2023/03/30 02:23:42;;;;;;;10.32;4.30;;;11.50;99.90;;;;;;5015179;28;20135;-73
2023/03/30 02:26:09;;;;;;;14.40;5.20;;;11.50;99.90;;;;;;5028707;28;20063;-72
2023/03/30 02:28:35;;;;;;;9.88;4.63;;;11.50;99.90;;;;;;5012023;28;20048;-72
2023/03/30 02:31:02;;;;;;;11.13;4.82;;;11.50;99.90;;;;;;5042888;28;20877;-73
2023/03/30 02:34:17;;;;;;;9.88;4.93;;;11.50;99.90;;;;;;5024120;28;20037;-73
2023/03/30 02:37:04;;;;;;;14.27;4.80;;;11.50;99.90;;;;;;5022582;28;20044;-73
2023/03/30 02:39:46;;;;;;;13.55;4.72;;;11.50;99.90;;;;;;5025098;28;20057;-73
2023/03/30 02:42:28;;;;;;;13.20;4.38;;;11.50;99.90;;;;;;5037617;28;20049;-73
2023/03/30 02:45:17;;;;;;;;;;;11.50;99.90;;;;;;5043077;28;20040;-73
2023/03/30 02:48:26;;;;;;;11.02;4.38;;;11.50;99.90;;;;;;5039721;28;20382;-73
2023/03/30 02:51:21;;;;;;;10.57;3.78;;;11.50;99.90;;;;;;5027273;28;20060;-72
2023/03/30 02:54:11;;;;;;;11.57;3.50;;;11.50;99.90;;;;;;5032714;28;20041;-73
2023/03/30 02:57:06;;;;;;;9.73;3.70;;;11.60;99.90;;;;;;5043538;28;20516;-73
2023/03/30 02:59:59;;;;;;;10.38;3.88;;;11.50;99.90;;;;;;5024852;28;20079;-73
2023/03/30 03:02:39;;;;;;;12.70;3.92;;;11.60;99.90;;;;;;5015150;28;20057;-73
2023/03/30 03:05:07;;;;;;;12.70;3.30;;;11.60;99.90;;;;;;5029416;28;20041;-72
2023/03/30 03:07:34;;;;;;;9.10;3.17;;;11.60;99.90;;;;;;5016541;28;20044;-72
2023/03/30 03:10:00;;;;;;;13.40;3.55;;;11.70;99.90;;;;;;5032660;28;20052;-72
2023/03/30 03:12:27;;;;;;;12.23;3.72;;;11.70;99.90;;;;;;5026143;28;20123;-73
2023/03/30 03:14:53;;;;;;;13.27;3.70;;;11.70;99.90;;;;;;5022119;28;20387;-72
2023/03/30 03:17:21;;;;;;;13.73;3.28;;;11.70;99.90;;;;;;5008392;28;20042;-73
2023/03/30 03:19:49;;;;;;;11.88;3.33;;;11.80;99.90;;;;;;5031409;28;21726;-72
2023/03/30 03:22:16;;;;;;;12.65;3.65;;;11.80;99.90;;;;;;5030973;28;20045;-73
2023/03/30 03:24:43;;;;;;;12.52;3.50;;;11.80;99.90;;;;;;5032863;28;20045;-73
2023/03/30 03:27:10;;;;;;;10.00;3.10;;;11.80;99.90;;;;;;5037585;28;20057;-72
2023/03/30 03:29:36;;;;;;;9.18;3.17;;;11.80;99.90;;;;;;5019301;28;20052;-72
2023/03/30 03:32:02;;;;;;;12.32;3.13;;;11.80;99.90;;;;;;5042424;28;20156;-72
2023/03/30 03:34:30;;;;;;;12.93;3.45;;;11.80;99.90;;;;;;5031878;28;20112;-72
2023/03/30 03:36:59;;;;;;;11.90;3.22;;;11.80;99.90;;;;;;5031619;28;20132;-72
2023/03/30 03:39:25;;;;;;;13.05;3.65;;;11.80;99.90;;;;;;5032510;28;20048;-72
2023/03/30 03:41:50;;;;;;;9.45;2.95;;;11.70;99.90;;;;;;5019425;28;20064;-72
2023/03/30 03:44:16;;;;;;;9.55;3.70;;;11.70;99.90;;;;;;5041785;28;20036;-72
2023/03/30 03:46:42;;;;;;;13.43;3.92;;;11.70;99.90;;;;;;5050156;28;20114;-72
2023/03/30 03:49:08;;;;;;;10.05;3.50;;;11.70;99.90;;;;;;5013364;28;20144;-72
2023/03/30 03:51:34;;;;;;;16.77;3.70;;;11.70;99.90;;;;;;5043435;28;20047;-72
2023/03/30 03:54:00;;;;;;;13.93;3.45;;;11.70;99.90;;;;;;5032649;28;20564;-72
2023/03/30 03:56:26;;;;;;;14.80;3.72;;;11.70;99.90;;;;;;5036997;28;20094;-73
2023/03/30 03:58:52;;;;;;;12.90;3.20;;;11.80;99.90;;;;;;5050238;28;20052;-73
2023/03/30 04:01:18;;;;;;;12.07;3.75;;;11.80;99.90;;;;;;5035318;28;20041;-72
2023/03/30 04:03:44;;;;;;;13.10;3.70;;;11.80;99.90;;;;;;5033527;28;20072;-71
2023/03/30 04:06:10;;;;;;;12.90;2.72;;;11.80;99.90;;;;;;5045944;28;20286;-72
2023/03/30 04:08:36;;;;;;;7.63;2.80;;;11.80;99.90;;;;;;5042033;28;20053;-72
2023/03/30 04:11:10;;;;;;;11.35;2.88;;;11.80;99.90;;;;;;5035715;28;20048;-72
2023/03/30 04:13:38;;;;;;;8.43;2.40;;;11.80;99.90;;;;;;5009192;28;20160;-72
2023/03/30 04:16:04;;;;;;;10.60;2.85;;;11.80;99.90;;;;;;5041176;28;20037;-72
2023/03/30 04:18:32;;;;;;;13.43;3.13;;;11.80;99.90;;;;;;5012057;28;20491;-70
2023/03/30 04:21:03;;;;;;;9.23;3.00;;;11.80;99.90;;;;;;5042541;28;20045;-71
2023/03/30 04:23:33;;;;;;;;;;;11.70;99.90;;;;;;5034854;28;20609;-71
2023/03/30 04:26:00;;;;;;;13.68;2.97;;;11.80;99.90;;;;;;5045241;28;19936;-71
2023/03/30 04:28:31;;;;;;;9.60;2.67;;;11.80;99.90;;;;;;5015350;28;20451;-71
2023/03/30 04:31:11;;;;;;;9.13;2.15;;;11.70;99.90;;;;;;5032121;28;20102;-72
2023/03/30 04:33:44;;;;;;;7.35;1.90;;;11.70;99.90;;;;;;5038587;28;20067;-72
2023/03/30 04:36:16;;;;;;;10.90;2.60;;;11.70;99.90;;;;;;5013588;28;20055;-72
2023/03/30 04:38:56;;;;;;;9.60;2.35;;;11.70;99.90;;;;;;5027739;28;20110;-73
2023/03/30 04:41:25;;;;;;;9.48;1.67;;;11.80;99.90;;;;;;5024175;28;20076;-72
2023/03/30 04:43:52;;;;;;;9.98;2.50;;;11.70;99.90;;;;;;5036538;28;20107;-73
2023/03/30 04:46:18;;;;;;;13.60;2.47;;;11.70;99.90;;;;;;5033921;28;20498;-72
2023/03/30 04:48:44;;;;;;;13.77;2.60;;;11.70;99.90;;;;;;5031526;28;20045;-72
2023/03/30 04:51:09;;;;;;;11.18;2.72;;;11.70;99.90;;;;;;5024463;28;20539;-72
2023/03/30 04:53:35;;;;;;;11.80;2.55;;;11.80;99.90;;;;;;5021690;28;20041;-72
2023/03/30 04:56:01;;;;;;;14.07;2.97;;;11.80;99.90;;;;;;5019894;28;20048;-72
2023/03/30 04:58:27;;;;;;;11.95;2.55;;;11.80;99.90;;;;;;5034200;28;20057;-72
2023/03/30 05:00:54;;;;;;;11.02;2.35;;;11.80;99.90;;;;;;5025120;28;20115;-73
2023/03/30 05:03:20;;;;;;;13.80;3.00;;;11.80;99.90;;;;;;5026303;28;20053;-72
2023/03/30 05:05:49;;;;;;;12.88;2.45;;;11.80;99.90;;;;;;5034341;28;20044;-73
2023/03/30 05:08:14;;;;;;;10.77;2.45;;;11.80;99.90;;;;;;5018758;28;20083;-73
2023/03/30 05:10:40;;;;;;;10.10;2.38;;;11.80;99.90;;;;;;5025719;28;20060;-72
2023/03/30 05:13:06;;;;;;;13.40;3.25;;;11.80;99.90;;;;;;5026691;28;20041;-73
2023/03/30 05:15:31;;;;;;;15.52;3.33;;;11.80;99.90;;;;;;5014968;28;20143;-73
2023/03/30 05:17:58;;;;;;;14.60;3.10;;;11.90;99.90;;;;;;5013526;28;20115;-73
2023/03/30 05:20:27;;;;;;;15.02;2.72;;;11.90;99.90;;;;;;5011415;28;20048;-72
2023/03/30 05:22:53;;;;;;;17.05;2.90;;;11.90;99.90;;;;;;5012379;28;20045;-71
2023/03/30 05:25:19;;;;;;;15.38;2.80;;;11.90;99.90;;;;;;5007753;28;20060;-71
2023/03/30 05:27:45;;;;;;;9.98;2.42;;;12.00;99.90;;;;;;5025034;28;20121;-72
2023/03/30 05:30:11;;;;;;;16.92;2.85;;;12.00;99.90;;;;;;5009734;28;20052;-73
2023/03/30 05:32:37;;;;;;;11.55;2.50;;;12.00;99.90;;;;;;5026419;28;20045;-73
2023/03/30 05:35:03;;;;;;;13.07;3.10;;;12.00;99.90;;;;;;5016424;28;20052;-72
2023/03/30 05:37:29;;;;;;;10.80;2.72;;;12.00;99.90;;;;;;5023689;28;20523;-72
2023/03/30 05:39:55;;;;;;;16.60;3.10;;;12.00;99.90;;;;;;5019839;28;20053;-73
2023/03/30 05:42:21;;;;;;;14.90;3.45;;;12.00;99.90;;;;;;5022970;28;20073;-73
2023/03/30 05:44:49;;;;;;;16.17;3.50;;;12.00;99.90;;;;;;5019915;28;20046;-73
2023/03/30 05:47:15;;;;;;;14.18;3.17;;;12.00;99.90;;;;;;5028604;28;20045;-73
2023/03/30 05:49:41;;;;;;;13.65;2.70;;;12.00;99.90;;;;;;5038315;28;20036;-73
2023/03/30 05:52:07;;;;;;;14.82;3.03;;;12.00;99.90;;;;;;5039986;28;20476;-73
2023/03/30 05:54:33;;;;;;;9.00;2.80;;;12.00;99.90;;;;;;5022307;28;20124;-73
2023/03/30 05:56:58;;;;;;;14.73;2.90;;;12.00;99.90;;;;;;5020266;28;20059;-73
2023/03/30 05:59:24;;;;;;;9.98;2.70;;;12.00;99.90;;;;;;5040650;28;20036;-73
2023/03/30 06:01:50;;;;;;;11.95;2.90;;;12.00;99.90;;;;;;5003568;28;20052;-73
2023/03/30 06:04:16;;;;;;;13.10;2.80;;;12.00;99.90;;;;;;5022612;28;20048;-73
2023/03/30 06:06:42;;;;;;;14.65;3.55;;;12.00;99.90;;;;;;5006761;28;20527;-73
2023/03/30 06:09:07;;;;;;;14.38;3.60;;;12.10;99.90;;;;;;5021507;28;20044;-73
2023/03/30 06:11:33;;;;;;;20.67;3.42;;;12.00;99.90;;;;;;5011100;28;20041;-73
2023/03/30 06:13:59;;;;;;;9.07;2.78;;;12.10;99.90;;;;;;5031666;28;20528;-72
2023/03/30 06:16:25;;;;;;;12.48;3.03;;;12.10;99.90;;;;;;5004553;28;20044;-72
2023/03/30 06:18:51;;;;;;;10.55;2.88;;;12.10;99.90;;;;;;5015682;28;20154;-72
2023/03/30 06:21:17;;;;;;;10.40;2.75;;;12.10;99.90;;;;;;5024715;28;20053;-73
2023/03/30 06:23:42;;;;;;;13.90;3.25;;;12.10;99.90;;;;;;5039100;28;20049;-72
2023/03/30 06:26:08;;;;;;;11.18;3.65;;;12.10;99.90;;;;;;5021005;28;20036;-74
2023/03/30 06:28:35;;;;;;;9.35;2.85;;;12.10;99.90;;;;;;5027848;28;20036;-73
2023/03/30 06:31:08;;;;;;;11.25;2.97;;;12.10;99.90;;;;;;5010036;28;20047;-72
2023/03/30 06:33:35;;;;;;;14.82;3.45;;;12.10;99.90;;;;;;5026165;28;20040;-73
2023/03/30 06:36:01;;;;;;;14.88;3.55;;;12.10;99.90;;;;;;5037646;28;20049;-72
2023/03/30 06:38:27;;;;;;;9.50;3.13;;;12.10;99.90;;;;;;5020508;28;20049;-72
2023/03/30 06:40:52;;;;;;;10.98;3.53;;;12.20;99.90;;;;;;5020447;28;20115;-70
2023/03/30 06:43:21;;;;;;;16.48;3.28;;;12.20;99.90;;;;;;5018891;28;20057;-72
2023/03/30 06:45:52;;;;;;;13.80;3.50;;;12.20;99.90;;;;;;5022256;28;20056;-73
2023/03/30 06:48:19;;;;;;;14.80;3.20;;;12.20;99.90;;;;;;5026507;28;20048;-73
2023/03/30 06:50:46;;;;;;;14.63;3.30;;;12.20;99.90;;;;;;5026095;28;20037;-72
2023/03/30 06:53:15;;;;;;;12.50;3.22;;;12.20;99.90;;;;;;5010510;28;20406;-73
2023/03/30 06:55:41;;;;;;;14.52;2.53;;;12.20;99.90;;;;;;5026078;28;20045;-72
2023/03/30 06:58:07;;;;;;;15.55;3.10;;;12.20;99.90;;;;;;5004779;28;20044;-72
2023/03/30 07:00:33;;;;;;;16.20;3.40;;;12.20;99.90;;;;;;5026612;28;20136;-73
2023/03/30 07:02:59;;;;;;;14.23;3.20;;;12.20;99.90;;;;;;5025421;28;20115;-72
2023/03/30 07:05:27;;;;;;;18.80;2.90;;;12.20;99.90;;;;;;5024756;28;20041;-73
2023/03/30 07:07:53;;;;;;;16.42;3.28;;;12.20;99.90;;;;;;5026995;28;20053;-72
2023/03/30 07:10:20;;;;;;;16.92;3.03;;;12.30;99.90;;;;;;5022105;28;20137;-72
2023/03/30 07:12:49;;;;;;;16.48;3.20;;;12.20;99.90;;;;;;5007258;28;20508;-72
2023/03/30 07:15:15;;;;;;;18.38;3.30;;;12.20;99.90;;;;;;5016542;28;20053;-73
2023/03/30 07:17:42;;;;;;;14.13;3.08;;;12.20;99.90;;;;;;5014000;28;20122;-73
2023/03/30 07:20:09;;;;;;;22.88;3.83;;;12.30;99.90;;;;;;5022855;28;20047;-74
2023/03/30 07:22:36;;;;;;;16.83;2.92;;;12.20;99.90;;;;;;5004826;28;20084;-73
2023/03/30 07:25:03;;;;;;;21.15;3.38;;;12.30;99.90;;;;;;5020642;28;20037;-73
2023/03/30 07:27:28;;;;;;;15.55;2.90;;;12.20;99.90;;;;;;5021301;28;20037;-73
2023/03/30 07:29:54;;;;;;;20.63;3.28;;;12.30;99.90;;;;;;5020803;28;20545;-72
2023/03/30 07:32:20;;;;;;;24.35;3.78;;;12.20;99.90;;;;;;5025273;28;20091;-73
2023/03/30 07:34:49;;;;;;;16.92;3.38;;;12.20;99.90;;;;;;5019206;28;20129;-72
2023/03/30 07:37:15;;;;;;;18.73;3.50;;;12.20;99.90;;;;;;5021571;28;20047;-72
2023/03/30 07:39:41;;;;;;;26.30;4.18;;;12.10;99.90;;;;;;5025309;28;20433;-73
2023/03/30 07:42:07;;;;;;;18.38;3.38;;;12.10;99.90;;;;;;5039057;28;20052;-72
2023/03/30 07:44:33;;;;;;;20.15;4.13;;;12.10;99.90;;;;;;5026097;28;20044;-73
2023/03/30 07:46:59;;;;;;;20.88;3.22;;;12.10;99.90;;;;;;5038156;28;20715;-73
2023/03/30 07:49:25;;;;;;;17.92;3.30;;;12.00;99.90;;;;;;5024696;28;20472;-73
2023/03/30 07:51:52;;;;;;;20.10;3.63;;;12.00;99.90;;;;;;5028403;28;20738;-72
2023/03/30 07:54:18;;;;;;;18.63;3.40;;;12.00;99.90;;;;;;5028939;28;20230;-72
2023/03/30 07:56:44;;;;;;;20.52;3.42;;;12.00;99.90;;;;;;5047623;28;20171;-74
2023/03/30 07:59:12;;;;;;;18.13;4.28;;;11.90;99.90;;;;;;5008283;28;20045;-72
2023/03/30 08:01:38;;;;;;;22.27;3.70;;;11.90;99.90;;;;;;5028177;28;20443;-72
2023/03/30 08:04:03;;;;;;;23.92;3.50;;;11.90;99.90;;;;;;5041154;28;20041;-72
2023/03/30 08:06:29;;;;;;;17.45;3.85;;;11.90;99.90;;;;;;5031924;28;20068;-72
2023/03/30 08:08:55;;;;;;;27.60;4.13;;;11.90;99.90;;;;;;5029466;28;20041;-72
2023/03/30 08:11:21;;;;;;;24.35;4.65;;;11.90;99.90;;;;;;5030936;28;20084;-73
2023/03/30 08:13:50;;;;;;;23.90;4.25;;;11.80;99.90;;;;;;5030055;28;20033;-72
2023/03/30 08:16:15;;;;;;;23.02;4.57;;;11.80;99.90;;;;;;5023202;28;20117;-72
2023/03/30 08:18:41;;;;;;;25.20;4.03;;;11.80;99.90;;;;;;5044255;28;20032;-72
2023/03/30 08:21:07;;;;;;;23.55;4.03;;;11.80;99.90;;;;;;5027788;28;20414;-71
2023/03/30 08:23:33;;;;;;;22.17;3.47;;;11.80;99.90;;;;;;5053033;28;20040;-72
2023/03/30 08:25:59;;;;;;;20.27;3.72;;;11.70;99.90;;;;;;5034631;28;20043;-72
2023/03/30 08:28:25;;;;;;;29.20;5.10;;;11.70;99.90;;;;;;5032271;28;21975;-72
2023/03/30 08:30:52;;;;;;;23.90;4.28;;;11.70;99.90;;;;;;5028627;28;20045;-73
2023/03/30 08:33:18;;;;;;;26.60;4.88;;;11.60;99.90;;;;;;5011701;28;20497;-73
2023/03/30 08:35:45;;;;;;;30.88;4.50;;;11.60;99.90;;;;;;5011849;28;20067;-72
2023/03/30 08:38:15;;;;;;;22.45;4.32;;;11.60;99.90;;;;;;5012765;28;20037;-71
2023/03/30 08:40:50;;;;;;;25.60;5.13;;;11.50;99.90;;;;;;5029095;28;20547;-72
2023/03/30 08:43:27;;;;;;;27.27;4.30;;;11.50;99.90;;;;;;5032720;28;20299;-71
2023/03/30 08:45:53;;;;;;;26.50;5.68;;;11.50;99.90;;;;;;5029554;28;20044;-72
2023/03/30 08:48:25;;;;;;;22.63;4.22;;;11.50;99.90;;;;;;5041656;28;20041;-71
2023/03/30 08:51:02;;;;;;;25.85;4.15;;;11.50;99.90;;;;;;5029874;28;20071;-72
2023/03/30 08:53:30;;;;;;;25.45;4.05;;;11.50;99.90;;;;;;5035662;28;20320;-73
2023/03/30 08:56:17;;;;;;;32.85;4.93;;;11.50;99.90;;;;;;5035138;28;20053;-72
2023/03/30 08:58:57;;;;;;;32.67;5.00;;;11.50;99.90;;;;;;5029208;28;20046;-72
2023/03/30 09:01:26;;;;;;;26.67;5.50;;;11.50;99.90;;;;;;5026149;28;20037;-71
2023/03/30 09:04:34;;;;;;;32.42;5.90;;;11.60;99.90;;;;;;5035241;28;20110;-72
2023/03/30 09:07:13;;;;;;;30.33;4.55;;;11.70;99.90;;;;;;5030833;28;20045;-72
2023/03/30 09:09:44;;;;;;;23.60;4.47;;;11.70;99.90;;;;;;5035384;28;20055;-72
2023/03/30 09:12:33;;;;;;;29.98;5.13;;;11.80;99.90;;;;;;5043497;28;20044;-71
2023/03/30 09:15:25;;;;;;;26.95;4.10;;;11.80;99.90;;;;;;5047752;28;20045;-73
2023/03/30 09:17:59;;;;;;;28.65;4.30;;;11.90;99.90;;;;;;5033303;28;20071;-73
2023/03/30 09:20:35;;;;;;;28.70;4.22;;;11.90;99.90;;;;;;5046214;28;20037;-73
2023/03/30 09:23:02;;;;;;;23.42;4.63;;;12.00;99.90;;;;;;5032204;28;20064;-73
2023/03/30 09:25:37;;;;;;;26.05;4.60;;;12.00;99.90;;;;;;5036111;28;20098;-73
2023/03/30 09:28:29;;;;;;;25.38;4.75;;;12.00;99.90;;;;;;5033014;28;20136;-72
2023/03/30 09:31:07;;;;;;;26.00;4.03;;;12.10;99.90;;;;;;5028459;28;20509;-72
2023/03/30 09:34:01;;;;;;;24.58;3.47;;;12.20;99.90;;;;;;5035700;28;20052;-73
2023/03/30 09:36:39;;;;;;;27.33;4.28;;;12.20;99.90;;;;;;5036064;28;20040;-72
2023/03/30 09:39:10;;;;;;;28.17;3.85;;;12.20;99.90;;;;;;5029022;28;20076;-73
2023/03/30 09:42:11;;;;;;;23.13;4.18;;;12.10;99.90;;;;;;5015085;28;20080;-72
2023/03/30 09:44:43;;;;;;;;;;;12.30;99.90;;;;;;5029414;28;20040;-72
2023/03/30 09:47:20;;;;;;;26.85;4.10;;;12.30;99.90;;;;;;5046189;28;20291;-71
2023/03/30 09:49:59;;;;;;;21.67;3.60;;;12.30;99.90;;;;;;5031299;28;20075;-72
2023/03/30 09:52:28;;;;;;;23.92;4.15;;;12.30;99.90;;;;;;5035905;28;20091;-74
2023/03/30 09:54:54;;;;;;;24.67;4.95;;;12.30;99.90;;;;;;5017289;28;20051;-71
2023/03/30 09:57:29;;;;;;;21.45;3.45;;;12.20;99.90;;;;;;5032716;28;20127;-72
2023/03/30 09:59:58;;;;;;;19.88;4.05;;;12.20;99.90;;;;;;5020867;28;20048;-73
2023/03/30 10:02:30;;;;;;;18.13;3.65;;;12.20;99.90;;;;;;5040271;28;22453;-73
2023/03/30 10:04:56;;;;;;;;;;;12.20;99.90;;;;;;5025626;28;20413;-75
2023/03/30 10:07:38;;;;;;;22.10;3.83;;;12.20;99.90;;;;;;5032851;28;20572;-74
2023/03/30 10:10:13;;;;;;;17.40;2.97;;;12.20;99.90;;;;;;5020601;28;20037;-74
2023/03/30 10:12:39;;;;;;;23.02;4.28;;;12.40;99.90;;;;;;5017617;28;20151;-73
2023/03/30 10:15:11;;;;;;;19.65;3.00;;;12.20;99.90;;;;;;5037888;28;20240;-74
2023/03/30 10:17:40;;;;;;;20.00;3.17;;;12.20;99.90;;;;;;5029372;28;20048;-74
2023/03/30 10:20:27;;;;;;;19.95;3.67;;;12.20;99.90;;;;;;5042546;28;20044;-74
2023/03/30 10:22:54;;;;;;;16.75;3.08;;;12.20;99.90;;;;;;5006305;28;20048;-73
2023/03/30 10:25:23;;;;;;;19.98;3.25;;;12.20;99.90;;;;;;5043519;28;20069;-73
2023/03/30 10:27:52;;;;;;;18.48;3.25;;;12.20;99.90;;;;;;5037727;28;20140;-74
2023/03/30 10:30:20;;;;;;;22.95;3.67;;;12.20;99.90;;;;;;5012706;28;20434;-73
2023/03/30 10:32:50;;;;;;;18.92;3.60;;;12.10;99.90;;;;;;5026228;28;20049;-74
2023/03/30 10:35:22;;;;;;;25.58;3.95;;;12.20;99.90;;;;;;5045999;28;20120;-73
2023/03/30 10:37:54;;;;;;;24.67;4.63;;;12.20;99.90;;;;;;5043040;28;20474;-73
2023/03/30 10:40:20;;;;;;;23.73;3.80;;;12.20;99.90;;;;;;5025709;28;20144;-73
2023/03/30 10:42:49;;;;;;;26.52;4.22;;;12.20;99.90;;;;;;5042609;28;20072;-72
2023/03/30 10:45:41;;;;;;;21.60;4.65;;;12.30;99.90;;;;;;5028450;28;20420;-72
2023/03/30 10:48:28;;;;;;;25.58;5.38;;;12.30;99.90;;;;;;5013672;28;20060;-74
2023/03/30 10:51:12;;;;;;;25.65;4.22;;;12.30;99.90;;;;;;5022674;28;20037;-73
2023/03/30 10:53:50;;;;;;;22.92;4.45;;;12.40;99.90;;;;;;5026410;28;20052;-73
2023/03/30 10:56:37;;;;;;;29.15;3.95;;;12.30;99.90;;;;;;5047760;28;20114;-74
2023/03/30 10:59:26;;;;;;;23.05;4.70;;;12.40;99.90;;;;;;5030412;28;20595;-75
2023/03/30 11:02:11;;;;;;;29.05;4.28;;;12.40;99.90;;;;;;5021154;28;20057;-73
2023/03/30 11:04:47;;;;;;;26.77;3.92;;;12.40;99.90;;;;;;5041870;28;20152;-73
2023/03/30 11:07:26;;;;;;;25.90;4.82;;;12.40;99.90;;;;;;5036287;28;20041;-74
2023/03/30 11:09:57;;;;;;;27.85;4.63;;;12.50;99.90;;;;;;5033663;28;20063;-73
2023/03/30 11:12:26;;;;;;;19.95;3.83;;;12.50;99.90;;;;;;5044254;28;20116;-73
2023/03/30 11:15:01;;;;;;;26.90;4.72;;;12.50;99.90;;;;;;5035372;28;20049;-73
2023/03/30 11:17:36;;;;;;;24.00;4.63;;;12.60;99.90;;;;;;5028439;28;20497;-72
2023/03/30 11:20:41;;;;;;;26.17;4.15;;;12.60;99.90;;;;;;5021653;28;20064;-73
2023/03/30 11:23:19;;;;;;;29.05;4.97;;;12.70;99.90;;;;;;5035206;28;20697;-74
2023/03/30 11:26:07;;;;;;;24.20;3.63;;;12.80;99.90;;;;;;5046942;28;20041;-74
2023/03/30 11:28:52;;;;;;;31.60;4.85;;;12.90;99.90;;;;;;5037966;28;20171;-74
2023/03/30 11:31:57;;;;;;;24.75;4.97;;;12.90;99.90;;;;;;5036870;28;20037;-73
2023/03/30 11:34:42;;;;;;;22.63;3.95;;;12.90;99.90;;;;;;5030770;28;20052;-74
2023/03/30 11:37:11;;;;;;;26.13;4.22;;;12.90;99.90;;;;;;5011278;28;20509;-73
2023/03/30 11:39:44;;;;;;;29.60;4.20;;;13.00;99.90;;;;;;5044953;28;20203;-73
2023/03/30 11:42:20;;;;;;;24.33;4.55;;;13.00;99.90;;;;;;5044036;28;20498;-70
2023/03/30 11:44:47;;;;;;;25.92;4.03;;;13.10;99.90;;;;;;5041293;28;20124;-74
2023/03/30 11:47:49;;;;;;;21.48;3.33;;;13.10;99.90;;;;;;5033769;28;20386;-74
2023/03/30 11:50:52;;;;;;;23.85;4.03;;;13.10;99.90;;;;;;5033040;28;20730;-73
2023/03/30 11:54:13;;;;;;;23.20;3.75;;;13.10;99.90;;;;;;5047396;28;20056;-73
2023/03/30 11:56:42;;;;;;;24.85;4.22;;;13.20;99.90;;;;;;5020239;28;20391;-72
2023/03/30 11:59:20;;;;;;;21.50;4.68;;;13.20;99.90;;;;;;5041209;28;20129;-73
2023/03/30 12:02:03;;;;;;;20.45;3.85;;;13.20;99.90;;;;;;5032154;28;20049;-74
2023/03/30 12:04:41;;;;;;;30.35;4.07;;;13.20;99.90;;;;;;5029533;28;20413;-74
2023/03/30 12:07:25;;;;;;;30.75;4.25;;;13.20;99.90;;;;;;5023863;28;20563;-73
2023/03/30 12:09:57;;;;;;;25.08;4.10;;;13.20;99.90;;;;;;5025484;28;20502;-72
2023/03/30 12:12:37;;;;;;;22.75;3.70;;;13.30;99.90;;;;;;5036714;28;20037;-74
2023/03/30 12:15:18;;;;;;;27.00;4.10;;;13.40;99.90;;;;;;5043903;28;20123;-74
2023/03/30 12:17:50;;;;;;;21.23;4.28;;;13.40;99.90;;;;;;5017972;28;20057;-75
2023/03/30 12:20:38;;;;;;;23.42;3.63;;;13.50;99.90;;;;;;5032529;28;20102;-73
2023/03/30 12:23:25;;;;;;;26.08;4.55;;;13.60;99.90;;;;;;5023609;28;20080;-75
2023/03/30 12:25:59;;;;;;;28.48;4.78;;;13.60;99.90;;;;;;5036394;28;20045;-74
2023/03/30 12:28:38;;;;;;;25.70;4.03;;;13.70;99.90;;;;;;5018554;28;20071;-73
2023/03/30 12:31:03;;;;;;;22.13;3.50;;;13.80;99.90;;;;;;5017642;28;20056;-74
2023/03/30 12:33:46;;;;;;;20.23;3.25;;;13.90;99.90;;;;;;5028505;28;20110;-75
2023/03/30 12:36:41;;;;;;;21.20;3.85;;;14.10;99.90;;;;;;5021746;28;20044;-75
2023/03/30 12:39:30;;;;;;;18.02;3.40;;;14.20;99.90;;;;;;5014162;28;20112;-75
2023/03/30 12:42:04;;;;;;;21.75;3.75;;;14.20;99.90;;;;;;5001994;28;20135;-75
2023/03/30 12:44:35;;;;;;;28.40;4.43;;;14.30;99.90;;;;;;4996625;28;20040;-79
2023/03/30 12:47:29;;;;;;;20.58;3.50;;;14.30;99.90;;;;;;5024351;28;22163;-79
2023/03/30 12:50:25;;;;;;;21.55;3.38;;;14.30;99.90;;;;;;5015222;28;20059;-76
2023/03/30 12:53:14;;;;;;;24.40;4.93;;;14.20;99.90;;;;;;5031062;28;20814;-78
2023/03/30 12:56:10;;;;;;;23.20;3.80;;;14.20;99.90;;;;;;5016250;28;20117;-78
2023/03/30 12:58:44;;;;;;;23.63;4.40;;;14.30;99.90;;;;;;5034663;28;20140;-78
2023/03/30 13:01:40;;;;;;;24.60;4.32;;;14.20;99.90;;;;;;5002549;28;20434;-76
2023/03/30 13:04:14;;;;;;;20.15;3.80;;;14.10;99.90;;;;;;5010343;28;20622;-76
2023/03/30 13:06:58;;;;;;;22.58;3.90;;;14.10;99.90;;;;;;5028424;28;20037;-76